Peeples Valley, Arizona
Current Conditions -  °F | °C
As of 11:53 AM on Thursday 23 Oct 2014 (Local Time) from KPRC Reporting Station
Clear Clear  
Wind Chill: 76°   Ceiling: Unl
Heat Index: 76°   Visibility: 10mi
Dew Point: 36°   Wind: 0mph
Humidity: 23%   Direction: NA
Pressure: 30.25"   Gusts: NA
Location:  34.4627°N, 112.899°W
Report Text: KPRC 231853Z 00000KT 10SM CLR 24/02 A3025 RMK AO2 SLP179 T02440022
Loading
Personal Weather Stations






























Interactive Weather Map
Tropical Storm Tracking
New forecast layout! Learn more

10-Day Weather Forecast

Advertisements
Track Severe Weather on mobile